sensor_id;sensor_type;location;lat;lon;timestamp;P1;durP1;ratioP1;P2;durP2;ratioP2
5058;SDS011;2548;52.050;11.036;2023-07-29T00:02:12;6.73;;;6.13;;
5058;SDS011;2548;52.050;11.036;2023-07-29T00:04:39;7.07;;;6.53;;
5058;SDS011;2548;52.050;11.036;2023-07-29T00:07:08;8.23;;;6.40;;
5058;SDS011;2548;52.050;11.036;2023-07-29T00:09:35;9.30;;;6.80;;
5058;SDS011;2548;52.050;11.036;2023-07-29T00:12:04;7.20;;;6.03;;
5058;SDS011;2548;52.050;11.036;2023-07-29T00:14:31;9.73;;;7.10;;
5058;SDS011;2548;52.050;11.036;2023-07-29T00:16:59;10.47;;;7.77;;
5058;SDS011;2548;52.050;11.036;2023-07-29T00:22:04;11.60;;;8.53;;
5058;SDS011;2548;52.050;11.036;2023-07-29T00:24:35;8.87;;;7.60;;
5058;SDS011;2548;52.050;11.036;2023-07-29T00:27:03;8.00;;;7.40;;
5058;SDS011;2548;52.050;11.036;2023-07-29T00:29:30;8.20;;;6.60;;
5058;SDS011;2548;52.050;11.036;2023-07-29T00:31:58;7.57;;;6.73;;
5058;SDS011;2548;52.050;11.036;2023-07-29T00:34:25;7.97;;;7.17;;
5058;SDS011;2548;52.050;11.036;2023-07-29T00:36:52;8.20;;;7.07;;
5058;SDS011;2548;52.050;11.036;2023-07-29T00:39:20;11.60;;;6.93;;
5058;SDS011;2548;52.050;11.036;2023-07-29T00:41:49;9.07;;;6.80;;
5058;SDS011;2548;52.050;11.036;2023-07-29T00:44:17;7.73;;;7.10;;
5058;SDS011;2548;52.050;11.036;2023-07-29T00:46:45;7.10;;;6.40;;
5058;SDS011;2548;52.050;11.036;2023-07-29T00:49:13;7.53;;;6.80;;
5058;SDS011;2548;52.050;11.036;2023-07-29T00:51:41;8.63;;;7.80;;
5058;SDS011;2548;52.050;11.036;2023-07-29T00:54:08;8.47;;;7.77;;
5058;SDS011;2548;52.050;11.036;2023-07-29T00:56:36;9.63;;;7.97;;
5058;SDS011;2548;52.050;11.036;2023-07-29T00:59:05;8.07;;;7.40;;
5058;SDS011;2548;52.050;11.036;2023-07-29T01:01:33;7.40;;;6.60;;
5058;SDS011;2548;52.050;11.036;2023-07-29T01:04:00;10.57;;;8.30;;
5058;SDS011;2548;52.050;11.036;2023-07-29T01:06:29;7.47;;;6.73;;
5058;SDS011;2548;52.050;11.036;2023-07-29T01:09:06;8.50;;;6.40;;
5058;SDS011;2548;52.050;11.036;2023-07-29T01:11:41;9.02;;;7.20;;
5058;SDS011;2548;52.050;11.036;2023-07-29T01:14:18;8.10;;;7.40;;
5058;SDS011;2548;52.050;11.036;2023-07-29T01:16:52;8.60;;;7.87;;
5058;SDS011;2548;52.050;11.036;2023-07-29T01:19:26;9.03;;;7.70;;
5058;SDS011;2548;52.050;11.036;2023-07-29T01:22:09;8.73;;;7.83;;
5058;SDS011;2548;52.050;11.036;2023-07-29T01:24:39;8.50;;;7.80;;
5058;SDS011;2548;52.050;11.036;2023-07-29T01:27:07;8.67;;;7.30;;
5058;SDS011;2548;52.050;11.036;2023-07-29T01:29:34;8.83;;;7.93;;
5058;SDS011;2548;52.050;11.036;2023-07-29T01:32:04;9.33;;;8.43;;
5058;SDS011;2548;52.050;11.036;2023-07-29T01:34:39;8.17;;;7.57;;
5058;SDS011;2548;52.050;11.036;2023-07-29T01:37:12;10.13;;;9.00;;
5058;SDS011;2548;52.050;11.036;2023-07-29T01:39:48;9.13;;;8.17;;
5058;SDS011;2548;52.050;11.036;2023-07-29T01:42:17;15.10;;;8.70;;
5058;SDS011;2548;52.050;11.036;2023-07-29T01:44:45;7.97;;;7.23;;
5058;SDS011;2548;52.050;11.036;2023-07-29T01:47:12;7.87;;;7.27;;
5058;SDS011;2548;52.050;11.036;2023-07-29T01:49:40;8.70;;;7.90;;
5058;SDS011;2548;52.050;11.036;2023-07-29T01:52:07;9.03;;;7.90;;
5058;SDS011;2548;52.050;11.036;2023-07-29T01:54:35;9.35;;;8.10;;
5058;SDS011;2548;52.050;11.036;2023-07-29T01:57:04;9.97;;;9.10;;
5058;SDS011;2548;52.050;11.036;2023-07-29T01:59:31;10.57;;;9.65;;
5058;SDS011;2548;52.050;11.036;2023-07-29T02:01:59;10.47;;;9.47;;
5058;SDS011;2548;52.050;11.036;2023-07-29T02:04:26;10.83;;;9.73;;
5058;SDS011;2548;52.050;11.036;2023-07-29T02:06:53;12.33;;;10.20;;
5058;SDS011;2548;52.050;11.036;2023-07-29T02:09:21;11.90;;;9.33;;
5058;SDS011;2548;52.050;11.036;2023-07-29T02:11:49;8.90;;;8.17;;
5058;SDS011;2548;52.050;11.036;2023-07-29T02:14:18;8.93;;;8.13;;
5058;SDS011;2548;52.050;11.036;2023-07-29T02:16:45;8.07;;;7.47;;
5058;SDS011;2548;52.050;11.036;2023-07-29T02:19:12;8.90;;;8.00;;
5058;SDS011;2548;52.050;11.036;2023-07-29T02:21:40;8.60;;;7.90;;
5058;SDS011;2548;52.050;11.036;2023-07-29T02:24:07;8.83;;;7.37;;
5058;SDS011;2548;52.050;11.036;2023-07-29T02:26:35;7.33;;;6.67;;
5058;SDS011;2548;52.050;11.036;2023-07-29T02:29:02;6.57;;;6.17;;
5058;SDS011;2548;52.050;11.036;2023-07-29T02:31:31;8.33;;;7.63;;
5058;SDS011;2548;52.050;11.036;2023-07-29T02:34:00;7.47;;;6.90;;
5058;SDS011;2548;52.050;11.036;2023-07-29T02:36:27;8.07;;;6.90;;
5058;SDS011;2548;52.050;11.036;2023-07-29T02:38:55;6.90;;;6.30;;
5058;SDS011;2548;52.050;11.036;2023-07-29T02:41:23;7.67;;;7.13;;
5058;SDS011;2548;52.050;11.036;2023-07-29T02:43:51;6.53;;;6.03;;
5058;SDS011;2548;52.050;11.036;2023-07-29T02:46:18;6.90;;;6.23;;
5058;SDS011;2548;52.050;11.036;2023-07-29T02:48:47;7.10;;;6.47;;
5058;SDS011;2548;52.050;11.036;2023-07-29T02:51:14;7.13;;;5.80;;
5058;SDS011;2548;52.050;11.036;2023-07-29T02:53:42;7.37;;;5.70;;
5058;SDS011;2548;52.050;11.036;2023-07-29T02:56:10;6.50;;;5.90;;
5058;SDS011;2548;52.050;11.036;2023-07-29T02:58:37;8.97;;;6.30;;
5058;SDS011;2548;52.050;11.036;2023-07-29T03:01:05;6.03;;;5.57;;
5058;SDS011;2548;52.050;11.036;2023-07-29T03:03:33;4.60;;;4.40;;
5058;SDS011;2548;52.050;11.036;2023-07-29T03:06:03;5.53;;;5.13;;
5058;SDS011;2548;52.050;11.036;2023-07-29T03:08:31;12.73;;;5.67;;
5058;SDS011;2548;52.050;11.036;2023-07-29T03:11:04;6.63;;;5.97;;
5058;SDS011;2548;52.050;11.036;2023-07-29T03:13:32;5.57;;;5.18;;
5058;SDS011;2548;52.050;11.036;2023-07-29T03:16:04;7.78;;;5.30;;
5058;SDS011;2548;52.050;11.036;2023-07-29T03:18:32;6.63;;;6.13;;
5058;SDS011;2548;52.050;11.036;2023-07-29T03:21:00;7.77;;;6.93;;
5058;SDS011;2548;52.050;11.036;2023-07-29T03:23:29;7.17;;;6.57;;
5058;SDS011;2548;52.050;11.036;2023-07-29T03:25:57;9.50;;;6.63;;
5058;SDS011;2548;52.050;11.036;2023-07-29T03:28:27;7.40;;;6.75;;
5058;SDS011;2548;52.050;11.036;2023-07-29T03:30:55;6.77;;;6.33;;
5058;SDS011;2548;52.050;11.036;2023-07-29T03:33:23;7.63;;;6.80;;
5058;SDS011;2548;52.050;11.036;2023-07-29T03:35:51;8.23;;;7.53;;
5058;SDS011;2548;52.050;11.036;2023-07-29T03:38:19;7.20;;;6.60;;
5058;SDS011;2548;52.050;11.036;2023-07-29T03:40:48;6.97;;;6.50;;
5058;SDS011;2548;52.050;11.036;2023-07-29T03:43:15;6.78;;;6.18;;
5058;SDS011;2548;52.050;11.036;2023-07-29T03:45:44;6.70;;;6.28;;
5058;SDS011;2548;52.050;11.036;2023-07-29T03:48:12;6.47;;;5.83;;
5058;SDS011;2548;52.050;11.036;2023-07-29T03:50:39;9.48;;;6.55;;
5058;SDS011;2548;52.050;11.036;2023-07-29T03:53:07;7.43;;;6.68;;
5058;SDS011;2548;52.050;11.036;2023-07-29T03:55:35;8.30;;;6.70;;
5058;SDS011;2548;52.050;11.036;2023-07-29T03:58:04;15.52;;;6.43;;
5058;SDS011;2548;52.050;11.036;2023-07-29T04:00:32;7.00;;;6.40;;
5058;SDS011;2548;52.050;11.036;2023-07-29T04:02:59;7.03;;;6.40;;
5058;SDS011;2548;52.050;11.036;2023-07-29T04:05:27;10.45;;;7.63;;
5058;SDS011;2548;52.050;11.036;2023-07-29T04:07:54;6.33;;;5.70;;
5058;SDS011;2548;52.050;11.036;2023-07-29T04:10:22;6.70;;;6.10;;
5058;SDS011;2548;52.050;11.036;2023-07-29T04:12:50;7.33;;;6.17;;
5058;SDS011;2548;52.050;11.036;2023-07-29T04:15:18;7.85;;;6.40;;
5058;SDS011;2548;52.050;11.036;2023-07-29T04:17:46;7.32;;;6.70;;
5058;SDS011;2548;52.050;11.036;2023-07-29T04:20:13;7.75;;;6.80;;
5058;SDS011;2548;52.050;11.036;2023-07-29T04:22:41;11.93;;;6.20;;
5058;SDS011;2548;52.050;11.036;2023-07-29T04:25:08;6.03;;;5.40;;
5058;SDS011;2548;52.050;11.036;2023-07-29T04:27:36;7.65;;;7.05;;
5058;SDS011;2548;52.050;11.036;2023-07-29T04:30:04;7.03;;;6.53;;
5058;SDS011;2548;52.050;11.036;2023-07-29T04:32:33;7.20;;;6.70;;
5058;SDS011;2548;52.050;11.036;2023-07-29T04:35:01;5.82;;;5.43;;
5058;SDS011;2548;52.050;11.036;2023-07-29T04:37:28;6.70;;;6.13;;
5058;SDS011;2548;52.050;11.036;2023-07-29T04:39:56;5.73;;;5.30;;
5058;SDS011;2548;52.050;11.036;2023-07-29T04:42:23;6.93;;;6.38;;
5058;SDS011;2548;52.050;11.036;2023-07-29T04:44:51;9.60;;;5.80;;
5058;SDS011;2548;52.050;11.036;2023-07-29T04:47:18;6.50;;;5.97;;
5058;SDS011;2548;52.050;11.036;2023-07-29T04:49:47;5.80;;;5.40;;
5058;SDS011;2548;52.050;11.036;2023-07-29T04:52:14;6.17;;;5.67;;
5058;SDS011;2548;52.050;11.036;2023-07-29T04:54:42;5.83;;;5.53;;
5058;SDS011;2548;52.050;11.036;2023-07-29T04:57:09;5.17;;;4.83;;
5058;SDS011;2548;52.050;11.036;2023-07-29T04:59:37;5.13;;;4.63;;
5058;SDS011;2548;52.050;11.036;2023-07-29T05:02:05;4.70;;;4.40;;
5058;SDS011;2548;52.050;11.036;2023-07-29T05:04:32;5.53;;;5.23;;
5058;SDS011;2548;52.050;11.036;2023-07-29T05:07:01;7.03;;;5.33;;
5058;SDS011;2548;52.050;11.036;2023-07-29T05:09:28;4.63;;;4.33;;
5058;SDS011;2548;52.050;11.036;2023-07-29T05:11:56;5.53;;;4.57;;
5058;SDS011;2548;52.050;11.036;2023-07-29T05:14:23;8.60;;;4.43;;
5058;SDS011;2548;52.050;11.036;2023-07-29T05:16:51;5.97;;;5.50;;
5058;SDS011;2548;52.050;11.036;2023-07-29T05:19:18;5.50;;;5.03;;
5058;SDS011;2548;52.050;11.036;2023-07-29T05:21:46;7.07;;;6.37;;
5058;SDS011;2548;52.050;11.036;2023-07-29T05:24:14;6.73;;;6.13;;
5058;SDS011;2548;52.050;11.036;2023-07-29T05:26:42;8.10;;;6.10;;
5058;SDS011;2548;52.050;11.036;2023-07-29T05:29:09;6.70;;;6.07;;
5058;SDS011;2548;52.050;11.036;2023-07-29T05:31:37;5.95;;;5.60;;
5058;SDS011;2548;52.050;11.036;2023-07-29T05:34:04;4.87;;;4.47;;
5058;SDS011;2548;52.050;11.036;2023-07-29T05:36:32;5.97;;;5.27;;
5058;SDS011;2548;52.050;11.036;2023-07-29T05:38:59;5.90;;;5.50;;
5058;SDS011;2548;52.050;11.036;2023-07-29T05:41:28;5.60;;;5.30;;
5058;SDS011;2548;52.050;11.036;2023-07-29T05:43:56;5.50;;;5.13;;
5058;SDS011;2548;52.050;11.036;2023-07-29T05:46:23;4.77;;;4.37;;
5058;SDS011;2548;52.050;11.036;2023-07-29T05:48:52;5.30;;;4.90;;
5058;SDS011;2548;52.050;11.036;2023-07-29T05:51:19;5.63;;;5.13;;
5058;SDS011;2548;52.050;11.036;2023-07-29T05:53:46;4.47;;;4.07;;
5058;SDS011;2548;52.050;11.036;2023-07-29T05:56:14;4.40;;;4.00;;
5058;SDS011;2548;52.050;11.036;2023-07-29T05:58:43;5.13;;;4.83;;
5058;SDS011;2548;52.050;11.036;2023-07-29T06:01:10;4.63;;;4.33;;
5058;SDS011;2548;52.050;11.036;2023-07-29T06:03:38;4.80;;;4.50;;
5058;SDS011;2548;52.050;11.036;2023-07-29T06:06:05;3.90;;;3.70;;
5058;SDS011;2548;52.050;11.036;2023-07-29T06:08:33;5.07;;;4.77;;
5058;SDS011;2548;52.050;11.036;2023-07-29T06:11:00;3.70;;;3.60;;
5058;SDS011;2548;52.050;11.036;2023-07-29T06:13:28;4.37;;;4.07;;
5058;SDS011;2548;52.050;11.036;2023-07-29T06:15:57;3.67;;;3.53;;
5058;SDS011;2548;52.050;11.036;2023-07-29T06:18:25;2.93;;;2.83;;
5058;SDS011;2548;52.050;11.036;2023-07-29T06:20:54;3.73;;;3.43;;
5058;SDS011;2548;52.050;11.036;2023-07-29T06:23:21;7.63;;;3.60;;
5058;SDS011;2548;52.050;11.036;2023-07-29T06:25:49;4.33;;;3.77;;
5058;SDS011;2548;52.050;11.036;2023-07-29T06:28:16;4.37;;;4.17;;
5058;SDS011;2548;52.050;11.036;2023-07-29T06:30:43;4.50;;;3.70;;
5058;SDS011;2548;52.050;11.036;2023-07-29T06:33:12;4.60;;;4.30;;
5058;SDS011;2548;52.050;11.036;2023-07-29T06:35:41;6.57;;;4.60;;
5058;SDS011;2548;52.050;11.036;2023-07-29T06:38:08;4.73;;;4.50;;
5058;SDS011;2548;52.050;11.036;2023-07-29T06:40:36;4.43;;;4.00;;
5058;SDS011;2548;52.050;11.036;2023-07-29T06:43:03;4.07;;;3.70;;
5058;SDS011;2548;52.050;11.036;2023-07-29T06:45:30;4.63;;;4.23;;
5058;SDS011;2548;52.050;11.036;2023-07-29T06:47:58;5.00;;;4.70;;
5058;SDS011;2548;52.050;11.036;2023-07-29T06:50:27;4.77;;;4.37;;
5058;SDS011;2548;52.050;11.036;2023-07-29T06:52:54;4.37;;;4.07;;
5058;SDS011;2548;52.050;11.036;2023-07-29T06:55:21;4.77;;;4.37;;
5058;SDS011;2548;52.050;11.036;2023-07-29T06:57:49;4.70;;;4.30;;
5058;SDS011;2548;52.050;11.036;2023-07-29T07:00:16;4.30;;;4.10;;
5058;SDS011;2548;52.050;11.036;2023-07-29T07:02:44;4.57;;;4.10;;
5058;SDS011;2548;52.050;11.036;2023-07-29T07:05:11;5.57;;;4.77;;
5058;SDS011;2548;52.050;11.036;2023-07-29T07:07:40;4.93;;;4.30;;
5058;SDS011;2548;52.050;11.036;2023-07-29T07:10:08;11.33;;;4.87;;
5058;SDS011;2548;52.050;11.036;2023-07-29T07:12:35;4.83;;;4.53;;
5058;SDS011;2548;52.050;11.036;2023-07-29T07:15:03;4.77;;;4.47;;
5058;SDS011;2548;52.050;11.036;2023-07-29T07:17:31;3.60;;;3.27;;
5058;SDS011;2548;52.050;11.036;2023-07-29T07:19:58;5.10;;;4.10;;
5058;SDS011;2548;52.050;11.036;2023-07-29T07:22:26;4.90;;;4.60;;
5058;SDS011;2548;52.050;11.036;2023-07-29T07:24:54;4.13;;;3.87;;
5058;SDS011;2548;52.050;11.036;2023-07-29T07:27:22;5.90;;;3.60;;
5058;SDS011;2548;52.050;11.036;2023-07-29T07:29:49;5.33;;;3.63;;
5058;SDS011;2548;52.050;11.036;2023-07-29T07:32:17;4.20;;;3.60;;
5058;SDS011;2548;52.050;11.036;2023-07-29T07:34:44;7.13;;;3.70;;
5058;SDS011;2548;52.050;11.036;2023-07-29T07:37:11;3.50;;;3.33;;
5058;SDS011;2548;52.050;11.036;2023-07-29T07:39:39;3.90;;;3.70;;
5058;SDS011;2548;52.050;11.036;2023-07-29T07:42:08;4.13;;;3.93;;
5058;SDS011;2548;52.050;11.036;2023-07-29T07:44:35;3.30;;;3.20;;
5058;SDS011;2548;52.050;11.036;2023-07-29T07:47:03;4.43;;;4.13;;
5058;SDS011;2548;52.050;11.036;2023-07-29T07:49:30;5.00;;;3.97;;
5058;SDS011;2548;52.050;11.036;2023-07-29T07:51:58;3.47;;;3.27;;
5058;SDS011;2548;52.050;11.036;2023-07-29T07:54:25;4.47;;;4.10;;
5058;SDS011;2548;52.050;11.036;2023-07-29T07:56:53;3.67;;;3.43;;
5058;SDS011;2548;52.050;11.036;2023-07-29T07:59:22;4.87;;;4.23;;
5058;SDS011;2548;52.050;11.036;2023-07-29T08:01:49;4.23;;;3.73;;
5058;SDS011;2548;52.050;11.036;2023-07-29T08:04:18;3.83;;;3.53;;
5058;SDS011;2548;52.050;11.036;2023-07-29T08:06:46;3.47;;;3.30;;
5058;SDS011;2548;52.050;11.036;2023-07-29T08:09:13;4.10;;;3.53;;
5058;SDS011;2548;52.050;11.036;2023-07-29T08:11:40;7.90;;;3.40;;
5058;SDS011;2548;52.050;11.036;2023-07-29T08:14:08;8.50;;;4.40;;
5058;SDS011;2548;52.050;11.036;2023-07-29T08:16:37;4.33;;;3.97;;
5058;SDS011;2548;52.050;11.036;2023-07-29T08:19:04;4.30;;;4.10;;
5058;SDS011;2548;52.050;11.036;2023-07-29T08:21:32;4.83;;;4.13;;
5058;SDS011;2548;52.050;11.036;2023-07-29T08:24:00;4.10;;;3.80;;
5058;SDS011;2548;52.050;11.036;2023-07-29T08:26:28;4.27;;;3.97;;
5058;SDS011;2548;52.050;11.036;2023-07-29T08:28:55;4.27;;;3.63;;
5058;SDS011;2548;52.050;11.036;2023-07-29T08:31:22;5.80;;;4.27;;
5058;SDS011;2548;52.050;11.036;2023-07-29T08:33:51;3.27;;;3.17;;
5058;SDS011;2548;52.050;11.036;2023-07-29T08:36:19;3.43;;;3.10;;
5058;SDS011;2548;52.050;11.036;2023-07-29T08:38:46;3.67;;;3.37;;
5058;SDS011;2548;52.050;11.036;2023-07-29T08:41:14;2.67;;;2.57;;
5058;SDS011;2548;52.050;11.036;2023-07-29T08:43:44;2.90;;;2.80;;
5058;SDS011;2548;52.050;11.036;2023-07-29T08:46:17;4.40;;;2.70;;
5058;SDS011;2548;52.050;11.036;2023-07-29T08:48:46;2.77;;;2.60;;
5058;SDS011;2548;52.050;11.036;2023-07-29T08:51:15;4.10;;;2.47;;
5058;SDS011;2548;52.050;11.036;2023-07-29T08:53:44;11.30;;;2.10;;
5058;SDS011;2548;52.050;11.036;2023-07-29T08:56:11;2.80;;;2.53;;
5058;SDS011;2548;52.050;11.036;2023-07-29T08:58:39;3.00;;;2.20;;
5058;SDS011;2548;52.050;11.036;2023-07-29T09:01:07;3.33;;;2.30;;
5058;SDS011;2548;52.050;11.036;2023-07-29T09:03:34;2.10;;;2.00;;
5058;SDS011;2548;52.050;11.036;2023-07-29T09:06:01;4.43;;;2.67;;
5058;SDS011;2548;52.050;11.036;2023-07-29T09:08:31;2.67;;;2.50;;
5058;SDS011;2548;52.050;11.036;2023-07-29T09:10:59;2.33;;;2.23;;
5058;SDS011;2548;52.050;11.036;2023-07-29T09:13:27;3.07;;;1.60;;
5058;SDS011;2548;52.050;11.036;2023-07-29T09:15:56;1.40;;;1.30;;
5058;SDS011;2548;52.050;11.036;2023-07-29T09:18:25;1.47;;;1.37;;
5058;SDS011;2548;52.050;11.036;2023-07-29T09:20:53;2.03;;;1.63;;
5058;SDS011;2548;52.050;11.036;2023-07-29T09:23:26;1.43;;;1.43;;
5058;SDS011;2548;52.050;11.036;2023-07-29T09:26:02;1.13;;;1.03;;
5058;SDS011;2548;52.050;11.036;2023-07-29T09:28:32;1.90;;;1.00;;
5058;SDS011;2548;52.050;11.036;2023-07-29T09:31:01;3.70;;;1.40;;
5058;SDS011;2548;52.050;11.036;2023-07-29T09:33:29;1.57;;;1.50;;
5058;SDS011;2548;52.050;11.036;2023-07-29T09:36:00;1.27;;;1.17;;
5058;SDS011;2548;52.050;11.036;2023-07-29T09:38:28;5.07;;;1.43;;
5058;SDS011;2548;52.050;11.036;2023-07-29T09:40:56;2.30;;;1.13;;
5058;SDS011;2548;52.050;11.036;2023-07-29T09:43:30;1.60;;;1.00;;
5058;SDS011;2548;52.050;11.036;2023-07-29T09:45:59;3.97;;;1.27;;
5058;SDS011;2548;52.050;11.036;2023-07-29T09:48:27;1.43;;;1.37;;
5058;SDS011;2548;52.050;11.036;2023-07-29T09:50:59;1.93;;;1.23;;
5058;SDS011;2548;52.050;11.036;2023-07-29T09:53:26;2.03;;;1.03;;
5058;SDS011;2548;52.050;11.036;2023-07-29T09:55:54;1.57;;;1.27;;
5058;SDS011;2548;52.050;11.036;2023-07-29T09:58:26;1.40;;;1.30;;
5058;SDS011;2548;52.050;11.036;2023-07-29T10:00:55;1.83;;;0.87;;
5058;SDS011;2548;52.050;11.036;2023-07-29T10:03:22;1.30;;;1.10;;
5058;SDS011;2548;52.050;11.036;2023-07-29T10:05:51;1.90;;;1.80;;
5058;SDS011;2548;52.050;11.036;2023-07-29T10:08:19;6.83;;;0.90;;
5058;SDS011;2548;52.050;11.036;2023-07-29T10:10:49;0.90;;;0.90;;
5058;SDS011;2548;52.050;11.036;2023-07-29T10:13:18;1.70;;;1.20;;
5058;SDS011;2548;52.050;11.036;2023-07-29T10:15:46;0.97;;;0.90;;
5058;SDS011;2548;52.050;11.036;2023-07-29T10:18:16;1.40;;;1.10;;
5058;SDS011;2548;52.050;11.036;2023-07-29T10:20:43;1.00;;;0.93;;
5058;SDS011;2548;52.050;11.036;2023-07-29T10:23:11;1.00;;;1.00;;
5058;SDS011;2548;52.050;11.036;2023-07-29T10:25:43;1.10;;;1.10;;
5058;SDS011;2548;52.050;11.036;2023-07-29T10:28:14;2.80;;;1.07;;
5058;SDS011;2548;52.050;11.036;2023-07-29T10:30:44;3.80;;;1.20;;
5058;SDS011;2548;52.050;11.036;2023-07-29T10:33:12;0.80;;;0.60;;
5058;SDS011;2548;52.050;11.036;2023-07-29T10:35:41;1.03;;;1.03;;
5058;SDS011;2548;52.050;11.036;2023-07-29T10:38:09;3.07;;;1.07;;
5058;SDS011;2548;52.050;11.036;2023-07-29T10:40:44;1.10;;;1.10;;
5058;SDS011;2548;52.050;11.036;2023-07-29T10:43:12;1.20;;;1.20;;
5058;SDS011;2548;52.050;11.036;2023-07-29T10:45:45;1.57;;;1.13;;
5058;SDS011;2548;52.050;11.036;2023-07-29T10:48:13;2.10;;;1.27;;
5058;SDS011;2548;52.050;11.036;2023-07-29T10:51:24;1.37;;;1.00;;
5058;SDS011;2548;52.050;11.036;2023-07-29T10:53:55;1.20;;;1.10;;
5058;SDS011;2548;52.050;11.036;2023-07-29T10:56:27;7.10;;;1.83;;
5058;SDS011;2548;52.050;11.036;2023-07-29T10:58:56;2.17;;;1.43;;
5058;SDS011;2548;52.050;11.036;2023-07-29T11:01:29;1.47;;;1.37;;
5058;SDS011;2548;52.050;11.036;2023-07-29T11:09:53;1.23;;;1.23;;
5058;SDS011;2548;52.050;11.036;2023-07-29T11:12:39;1.80;;;1.70;;
5058;SDS011;2548;52.050;11.036;2023-07-29T11:15:12;1.70;;;1.60;;
5058;SDS011;2548;52.050;11.036;2023-07-29T11:17:41;1.27;;;1.20;;
5058;SDS011;2548;52.050;11.036;2023-07-29T11:20:10;1.83;;;1.73;;
5058;SDS011;2548;52.050;11.036;2023-07-29T11:22:40;1.37;;;1.23;;
5058;SDS011;2548;52.050;11.036;2023-07-29T11:25:09;1.80;;;1.70;;
5058;SDS011;2548;52.050;11.036;2023-07-29T11:27:37;1.60;;;1.50;;
5058;SDS011;2548;52.050;11.036;2023-07-29T11:30:05;1.53;;;1.43;;
5058;SDS011;2548;52.050;11.036;2023-07-29T11:32:35;1.70;;;1.60;;
5058;SDS011;2548;52.050;11.036;2023-07-29T11:35:03;1.57;;;1.47;;
5058;SDS011;2548;52.050;11.036;2023-07-29T11:37:32;1.77;;;1.67;;
5058;SDS011;2548;52.050;11.036;2023-07-29T11:40:01;2.00;;;1.90;;
5058;SDS011;2548;52.050;11.036;2023-07-29T11:42:31;2.17;;;2.07;;
5058;SDS011;2548;52.050;11.036;2023-07-29T11:44:59;2.30;;;2.20;;
5058;SDS011;2548;52.050;11.036;2023-07-29T11:47:27;2.13;;;1.97;;
5058;SDS011;2548;52.050;11.036;2023-07-29T11:49:57;2.57;;;2.40;;
5058;SDS011;2548;52.050;11.036;2023-07-29T11:52:26;3.23;;;2.40;;
5058;SDS011;2548;52.050;11.036;2023-07-29T11:54:54;2.33;;;2.23;;
5058;SDS011;2548;52.050;11.036;2023-07-29T11:57:23;2.53;;;2.43;;
5058;SDS011;2548;52.050;11.036;2023-07-29T11:59:51;2.30;;;2.20;;
5058;SDS011;2548;52.050;11.036;2023-07-29T12:02:20;2.40;;;2.30;;
5058;SDS011;2548;52.050;11.036;2023-07-29T12:04:49;2.73;;;2.53;;
5058;SDS011;2548;52.050;11.036;2023-07-29T12:07:17;2.00;;;1.93;;
5058;SDS011;2548;52.050;11.036;2023-07-29T12:09:46;2.30;;;2.20;;
5058;SDS011;2548;52.050;11.036;2023-07-29T12:12:14;2.23;;;2.13;;
5058;SDS011;2548;52.050;11.036;2023-07-29T12:14:45;5.67;;;2.77;;
5058;SDS011;2548;52.050;11.036;2023-07-29T12:17:13;3.00;;;2.90;;
5058;SDS011;2548;52.050;11.036;2023-07-29T12:19:41;2.80;;;2.70;;
5058;SDS011;2548;52.050;11.036;2023-07-29T12:22:09;4.83;;;4.53;;
5058;SDS011;2548;52.050;11.036;2023-07-29T12:24:39;4.20;;;4.00;;
5058;SDS011;2548;52.050;11.036;2023-07-29T12:27:10;4.27;;;4.07;;
5058;SDS011;2548;52.050;11.036;2023-07-29T12:29:41;4.20;;;4.00;;
5058;SDS011;2548;52.050;11.036;2023-07-29T12:32:10;3.60;;;3.40;;
5058;SDS011;2548;52.050;11.036;2023-07-29T12:34:38;3.30;;;3.20;;
5058;SDS011;2548;52.050;11.036;2023-07-29T12:37:06;3.20;;;3.10;;
5058;SDS011;2548;52.050;11.036;2023-07-29T12:39:35;3.90;;;3.70;;
5058;SDS011;2548;52.050;11.036;2023-07-29T12:42:07;2.50;;;2.40;;
5058;SDS011;2548;52.050;11.036;2023-07-29T12:44:35;3.33;;;2.70;;
5058;SDS011;2548;52.050;11.036;2023-07-29T12:47:05;3.30;;;3.10;;
5058;SDS011;2548;52.050;11.036;2023-07-29T12:49:35;3.13;;;3.03;;
5058;SDS011;2548;52.050;11.036;2023-07-29T12:52:03;2.50;;;2.40;;
5058;SDS011;2548;52.050;11.036;2023-07-29T12:54:31;2.63;;;2.53;;
5058;SDS011;2548;52.050;11.036;2023-07-29T12:56:58;3.10;;;2.90;;
5058;SDS011;2548;52.050;11.036;2023-07-29T12:59:26;2.97;;;2.87;;
5058;SDS011;2548;52.050;11.036;2023-07-29T13:01:53;4.90;;;3.20;;
5058;SDS011;2548;52.050;11.036;2023-07-29T13:04:20;3.17;;;3.07;;
5058;SDS011;2548;52.050;11.036;2023-07-29T13:06:49;8.93;;;3.50;;
5058;SDS011;2548;52.050;11.036;2023-07-29T13:09:16;3.60;;;3.40;;
5058;SDS011;2548;52.050;11.036;2023-07-29T13:11:44;3.20;;;3.00;;
5058;SDS011;2548;52.050;11.036;2023-07-29T13:14:11;8.57;;;4.03;;
5058;SDS011;2548;52.050;11.036;2023-07-29T13:16:39;3.67;;;3.47;;
5058;SDS011;2548;52.050;11.036;2023-07-29T13:19:06;4.30;;;3.90;;
5058;SDS011;2548;52.050;11.036;2023-07-29T13:21:33;24.87;;;4.77;;
5058;SDS011;2548;52.050;11.036;2023-07-29T13:24:02;4.53;;;4.27;;
5058;SDS011;2548;52.050;11.036;2023-07-29T13:26:30;4.87;;;4.47;;
5058;SDS011;2548;52.050;11.036;2023-07-29T13:28:57;4.47;;;4.27;;
5058;SDS011;2548;52.050;11.036;2023-07-29T13:31:25;4.80;;;4.60;;
5058;SDS011;2548;52.050;11.036;2023-07-29T13:33:52;4.67;;;4.27;;
5058;SDS011;2548;52.050;11.036;2023-07-29T13:36:20;3.87;;;3.20;;
5058;SDS011;2548;52.050;11.036;2023-07-29T13:38:47;3.87;;;3.67;;
5058;SDS011;2548;52.050;11.036;2023-07-29T13:41:16;3.90;;;3.70;;
5058;SDS011;2548;52.050;11.036;2023-07-29T13:43:43;2.97;;;2.87;;
5058;SDS011;2548;52.050;11.036;2023-07-29T13:46:10;2.77;;;2.67;;
5058;SDS011;2548;52.050;11.036;2023-07-29T13:48:38;2.93;;;2.83;;
5058;SDS011;2548;52.050;11.036;2023-07-29T13:51:05;2.70;;;2.60;;
5058;SDS011;2548;52.050;11.036;2023-07-29T13:53:33;3.87;;;2.83;;
5058;SDS011;2548;52.050;11.036;2023-07-29T13:56:00;2.83;;;2.63;;
5058;SDS011;2548;52.050;11.036;2023-07-29T13:58:29;2.43;;;2.33;;
5058;SDS011;2548;52.050;11.036;2023-07-29T14:00:56;4.27;;;3.93;;
5058;SDS011;2548;52.050;11.036;2023-07-29T14:03:24;2.33;;;2.13;;
5058;SDS011;2548;52.050;11.036;2023-07-29T14:05:51;7.60;;;2.33;;
5058;SDS011;2548;52.050;11.036;2023-07-29T14:08:18;2.70;;;2.60;;
5058;SDS011;2548;52.050;11.036;2023-07-29T14:10:47;2.20;;;2.10;;
5058;SDS011;2548;52.050;11.036;2023-07-29T14:13:15;2.53;;;2.43;;
5058;SDS011;2548;52.050;11.036;2023-07-29T14:15:44;2.33;;;2.23;;
5058;SDS011;2548;52.050;11.036;2023-07-29T14:18:11;1.93;;;1.83;;
5058;SDS011;2548;52.050;11.036;2023-07-29T14:20:39;1.87;;;1.80;;
5058;SDS011;2548;52.050;11.036;2023-07-29T14:23:06;2.80;;;2.13;;
5058;SDS011;2548;52.050;11.036;2023-07-29T14:25:33;2.70;;;2.03;;
5058;SDS011;2548;52.050;11.036;2023-07-29T14:28:01;2.07;;;1.97;;
5058;SDS011;2548;52.050;11.036;2023-07-29T14:30:28;2.40;;;2.00;;
5058;SDS011;2548;52.050;11.036;2023-07-29T14:32:57;1.63;;;1.63;;
5058;SDS011;2548;52.050;11.036;2023-07-29T14:35:25;1.43;;;1.43;;
5058;SDS011;2548;52.050;11.036;2023-07-29T14:37:52;3.73;;;1.70;;
5058;SDS011;2548;52.050;11.036;2023-07-29T14:40:19;1.40;;;1.30;;
5058;SDS011;2548;52.050;11.036;2023-07-29T14:42:47;2.07;;;1.50;;
5058;SDS011;2548;52.050;11.036;2023-07-29T14:45:14;1.60;;;1.50;;
5058;SDS011;2548;52.050;11.036;2023-07-29T14:47:41;1.20;;;1.20;;
5058;SDS011;2548;52.050;11.036;2023-07-29T14:50:10;1.57;;;1.10;;
5058;SDS011;2548;52.050;11.036;2023-07-29T14:52:38;1.37;;;1.27;;
5058;SDS011;2548;52.050;11.036;2023-07-29T14:55:05;7.40;;;1.30;;
5058;SDS011;2548;52.050;11.036;2023-07-29T14:57:35;1.60;;;1.10;;
5058;SDS011;2548;52.050;11.036;2023-07-29T15:00:03;1.50;;;1.00;;
5058;SDS011;2548;52.050;11.036;2023-07-29T15:02:31;3.13;;;1.47;;
5058;SDS011;2548;52.050;11.036;2023-07-29T15:04:59;2.03;;;1.20;;
5058;SDS011;2548;52.050;11.036;2023-07-29T15:07:28;2.10;;;1.10;;
5058;SDS011;2548;52.050;11.036;2023-07-29T15:09:55;0.97;;;0.97;;
5058;SDS011;2548;52.050;11.036;2023-07-29T15:12:23;1.20;;;1.10;;
5058;SDS011;2548;52.050;11.036;2023-07-29T15:14:51;3.33;;;1.10;;
5058;SDS011;2548;52.050;11.036;2023-07-29T15:17:18;0.80;;;0.80;;